Flight Track Log - Related Links

Times and Time Zones

All times are in EDT time to prevent confusion due to time zone crossing. See the RPA3228 flight status page for this flight to view local times or setup timezone preferences in your user account.

Time Position Orientation Groundspeed Altitude Reporting Facility
EDT Latitude Longitude Course Direction KTS MPH feet Rate Location/Type
Fri 07:46:21 AM 36.1333 -86.6833 56° Northeast 133 153 1,300  Level Nashville TRACON
Fri 07:46:57 AM 36.1333 -86.7167 270° West 175 201 2,500 2,563 Climbing Nashville TRACON
Fri 07:47:57 AM 36.1667 -86.7833 302° West 257 296 5,400 3,379 Climbing Nashville TRACON
Fri 07:48:40 AM 36.2083 -86.7583 26° Northeast 293 337 8,300 3,437 Climbing Memphis Center
Fri 07:49:00 AM 36.2921 -86.1734 68° East  Level Estimated
Fri 07:49:40 AM 36.2072 -86.6478 91° East 342 394 11,300  Level Memphis Center
Fri 07:50:00 AM 36.3336 -86.0469 68° East  Level Estimated
Fri 07:50:40 AM 36.2058 -86.5269 91° East 380 437 14,500  Level Memphis Center
Fri 07:51:00 AM 36.3751 -85.9203 56° Northeast  Level Estimated
Fri 07:51:40 AM 36.2039 -86.4064 91° East 380 437 16,600  Level Memphis Center
Fri 07:52:40 AM 36.2019 -86.2753 91° East 370 426 19,100 2,350 Climbing Memphis Center
Fri 07:53:40 AM 36.1994 -86.1389 91° East 386 444 21,300 2,043 Climbing Memphis Center
Fri 07:55:45 AM 36.2861 -85.8772 68° East 416 479 25,400 1,893 Climbing Indianapolis Center
Fri 07:56:47 AM 36.3464 -85.7469 60° Northeast 425 489 27,200 1,610 Climbing Indianapolis Center
Fri 07:57:48 AM 36.4086 -85.6153 60° Northeast 437 503 28,700 1,426 Climbing Indianapolis Center
Fri 07:58:49 AM 36.4742 -85.4792 59° Northeast 454 522 30,100 1,122 Climbing Indianapolis Center
Fri 07:59:51 AM 36.5403 -85.3400 59° Northeast 464 534 31,000 439 Climbing Indianapolis Center
Fri 08:00:52 AM 36.6053 -85.1958 61° Northeast 474 545 31,000  Level Indianapolis Center
Fri 08:01:54 AM 36.6561 -85.0431 67° East 477 549 31,000  Level Indianapolis Center
Fri 08:02:55 AM 36.7039 -84.8872 69° East 478 550 31,000  Level Indianapolis Center
Fri 08:03:57 AM 36.7611 -84.6994 69° East 481 554 31,000  Level Indianapolis Center
Fri 08:04:58 AM 36.8083 -84.5414 69° East 483 556 31,000  Level Indianapolis Center
Fri 08:05:59 AM 36.8550 -84.3864 69° East 487 560 31,000  Level Indianapolis Center
Fri 08:07:01 AM 36.9036 -84.2286 69° East 486 559 31,000  Level Indianapolis Center
Fri 08:08:02 AM 36.9500 -84.0692 70° East 487 560 31,000  Level Indianapolis Center
Fri 08:09:04 AM 36.9978 -83.9114 69° East 484 557 31,000  Level Indianapolis Center
Fri 08:10:05 AM 37.0439 -83.7542 70° East 482 555 31,000  Level Indianapolis Center
Fri 08:11:07 AM 37.0900 -83.5983 70° East 478 550 31,000  Level Indianapolis Center
Fri 08:12:08 AM 37.1422 -83.4161 70° East 474 545 31,000  Level Indianapolis Center
Fri 08:13:09 AM 37.1883 -83.2589 70° East 476 548 31,000  Level Indianapolis Center
Fri 08:14:11 AM 37.2344 -83.1039 69° East 472 543 31,000  Level Indianapolis Center
Fri 08:15:12 AM 37.2786 -82.9475 70° East 471 542 31,000  Level Indianapolis Center
Fri 08:16:14 AM 37.3231 -82.7908 70° East 473 544 31,000  Level Indianapolis Center
Fri 08:17:15 AM 37.3664 -82.6353 71° East 470 541 31,000  Level Indianapolis Center
Fri 08:18:17 AM 37.4111 -82.4794 70° East 472 543 31,000  Level Indianapolis Center
Fri 08:19:18 AM 37.4544 -82.3233 71° East 472 543 31,000  Level Indianapolis Center
Fri 08:20:19 AM 37.4981 -82.1678 70° East 471 542 31,000  Level Indianapolis Center
Fri 08:21:21 AM 37.5417 -82.0111 71° East 472 543 31,000  Level Indianapolis Center
Fri 08:22:22 AM 37.5853 -81.8525 71° East 477 549 31,000  Level Indianapolis Center
Fri 08:23:24 AM 37.6353 -81.6689 71° East 474 545 31,000  Level Indianapolis Center
Fri 08:24:25 AM 37.6761 -81.5097 72° East 476 548 31,000  Level Indianapolis Center
Fri 08:25:26 AM 37.7186 -81.3592 70° East 478 550 31,000  Level Indianapolis Center
Fri 08:26:28 AM 37.7597 -81.2036 71° East 480 552 31,000  Level Indianapolis Center
Fri 08:27:29 AM 37.8169 -81.0214 68° East 476 548 31,000  Level Indianapolis Center
Fri 08:28:31 AM 37.8644 -80.8875 66° East 479 551 31,000  Level Indianapolis Center
Fri 08:29:32 AM 37.9175 -80.7353 66° East 477 549 31,000  Level Indianapolis Center
Fri 08:30:34 AM 37.9836 -80.5508 65° Northeast 480 552 31,000  Level Indianapolis Center
Fri 08:31:35 AM 38.0389 -80.3925 66° East 477 549 31,000  Level Indianapolis Center
Fri 08:32:37 AM 38.0917 -80.2411 66° East 480 552 31,000  Level Indianapolis Center
Fri 08:33:38 AM 38.1450 -80.0908 66° East 480 552 31,000  Level Indianapolis Center
Fri 08:34:40 AM 38.1992 -79.9375 66° East 483 556 31,000  Level Indianapolis Center
Fri 08:35:41 AM 38.2531 -79.7844 66° East 485 558 31,000  Level Indianapolis Center
Fri 08:36:44 AM 38.3231 -79.6014 64° Northeast 474 545 31,000  Level Washington Center
Fri 08:37:45 AM 38.3761 -79.4453 67° East 474 545 31,000 -295 Level Washington Center
Fri 08:38:46 AM 38.4228 -79.2967 68° East 484 557 30,400 -1,627 Descending Washington Center
Fri 08:39:43 AM 38.4547 -79.1311 76° East 484 557 27,800 -1,714 Descending Washington Center
Fri 08:40:45 AM 38.4844 -78.9656 77° East 484 557 27,000 -1,268 Descending Washington Center
Fri 08:41:46 AM 38.5081 -78.7967 80° East 484 557 25,200 -2,136 Descending Washington Center
Fri 08:42:43 AM 38.5350 -78.6333 78° East 479 551 22,800 -1,831 Descending Washington Center
Fri 08:43:44 AM 38.5597 -78.4778 78° East 469 540 21,600 -1,339 Descending Washington Center
Fri 08:44:44 AM 38.5842 -78.3219 79° East 457 526 20,100 -1,785 Descending Washington Center
Fri 08:45:45 AM 38.6208 -78.1719 73° East 444 511 18,000 -1,918 Descending Washington Center
Fri 08:46:46 AM 38.6656 -78.0325 68° East 431 496 16,200 -1,835 Descending Washington Center
Fri 08:47:46 AM 38.7078 -77.9036 67° East 414 476 14,300 -1,815 Descending Washington Center
Fri 08:48:45 AM 38.7536 -77.7958 61° Northeast 374 430 12,600 -1,550 Descending Washington Center
Fri 08:49:46 AM 38.8156 -77.7069 48° Northeast 344 396 11,200 -1,373 Descending Washington Center
Fri 08:50:43 AM 38.8547 -77.6069 63° Northeast 314 361 9,900 -1,373 Descending Washington Center
Fri 08:51:44 AM 38.8964 -77.4933 65° Northeast 308 354 8,500 -1,426 Descending Washington Center
Fri 08:52:45 AM 38.8833 -77.3889 99° East 289 333 7,000 -1,075 Descending Washington Center
Fri 08:53:58 AM 38.8333 -77.2667 118° Southeast 289 333 6,100 -432 Descending Potomac TRACON
Fri 08:55:04 AM 38.7833 -77.1833 128° Southeast 289 333 6,000 -900 Descending Potomac TRACON
Fri 08:55:58 AM 38.7500 -77.1167 123° Southeast 283 326 4,300 -1,000 Descending Potomac TRACON
Fri 08:56:58 AM 38.6667 -77.1000 171° South 229 264 4,100 -250 Descending Potomac TRACON
Fri 08:57:58 AM 38.6333 -77.0667 142° Southeast 224 258 3,800 -730 Descending Potomac TRACON
Fri 08:58:53 AM 38.6667 -77.0333 38° Northeast 183 211 2,700 -678 Descending Potomac TRACON
Fri 08:59:53 AM 38.7167 -77.0167 15° North 157 181 2,500 -400 Descending Potomac TRACON
Fri 09:00:53 AM 38.7500 -77.0333 339° North 156 180 1,900 -684 Descending Potomac TRACON
Fri 09:01:47 AM 38.7833 -77.0167 21° North 150 173 1,200 -684 Descending Potomac TRACON
Fri 09:02:47 AM 38.8167 -77.0167 360° North 118 136 600 -600 Descending Potomac TRACON

Login

Don't have an account? Register now (free) for customized features, flight alerts, and more!